Time;durP1;ratioP1;P1;durP2;ratioP2;P2;SDS_P1;SDS_P2;PMS_P1;PMS_P2;Temp;Humidity;BMP_temperature;BMP_pressure;BME280_temperature;BME280_humidity;BME280_pressure;Samples;Min_cycle;Max_cycle;Signal;HPM_P1;HPM_P2
2022/01/08 00:00:30;;;;;;;7.00;2.93;;;;;;;1.88;71.93;98632.69;5006713;28;20236;-68
2022/01/08 00:02:57;;;;;;;4.47;2.77;;;;;;;1.59;74.71;98651.16;5001887;28;20228;-72
2022/01/08 00:05:25;;;;;;;4.40;2.73;;;;;;;1.46;73.12;98608.56;4992770;28;20716;-71
2022/01/08 00:07:52;;;;;;;3.93;2.80;;;;;;;0.54;75.97;98626.38;4999988;28;20233;-70
2022/01/08 00:10:19;;;;;;;5.07;3.90;;;;;;;1.76;72.27;98599.66;5003114;28;20574;-74
2022/01/08 00:12:45;;;;;;;3.30;3.00;;;;;;;0.99;75.29;98619.78;5005787;28;20237;-74
2022/01/08 00:15:15;;;;;;;4.73;3.03;;;;;;;1.48;73.66;98607.47;5005962;28;20231;-68
2022/01/08 00:17:42;;;;;;;3.67;2.80;;;;;;;2.25;72.31;98609.97;5004661;28;20233;-69
2022/01/08 00:20:10;;;;;;;2.93;2.63;;;;;;;1.28;72.52;98558.50;4987722;28;20220;-68
2022/01/08 00:22:37;;;;;;;5.50;3.50;;;;;;;1.49;73.31;98571.50;5005236;28;20735;-69
2022/01/08 00:25:05;;;;;;;4.27;3.00;;;;;;;1.56;74.02;98589.19;5006192;28;20669;-71
2022/01/08 00:27:32;;;;;;;3.80;3.03;;;;;;;1.33;73.73;98559.75;5006473;28;20228;-70
2022/01/08 00:30:01;;;;;;;3.60;2.50;;;;;;;2.95;70.17;98594.41;5001881;28;20821;-72
2022/01/08 00:32:28;;;;;;;2.20;2.07;;;;;;;1.59;74.12;98582.81;5004875;28;20711;-68
2022/01/08 00:34:55;;;;;;;5.07;2.90;;;;;;;1.91;72.98;98579.78;5007521;28;20233;-73
2022/01/08 00:37:21;;;;;;;2.93;2.63;;;;;;;1.93;70.39;98517.34;5009053;28;20224;-70
2022/01/08 00:39:49;;;;;;;6.03;3.17;;;;;;;1.72;71.66;98522.88;5002041;28;20228;-70
2022/01/08 00:42:15;;;;;;;4.30;2.77;;;;;;;1.99;74.23;98578.22;4992316;28;20233;-73
2022/01/08 00:44:43;;;;;;;3.57;2.60;;;;;;;1.19;74.49;98544.44;4996209;28;20235;-75
2022/01/08 00:47:10;;;;;;;4.50;3.00;;;;;;;1.76;73.62;98552.31;4994491;28;20239;-74
2022/01/08 00:49:37;;;;;;;5.27;2.80;;;;;;;2.52;72.61;98564.38;4992080;28;20234;-74
2022/01/08 00:52:05;;;;;;;4.60;2.60;;;;;;;1.52;73.67;98514.22;4993667;28;20234;-75
2022/01/08 00:54:32;;;;;;;6.30;2.73;;;;;;;2.95;71.70;98540.88;4992997;28;20866;-74
2022/01/08 00:56:59;;;;;;;8.13;3.80;;;;;;;1.43;74.25;98501.94;4993714;28;20226;-74
2022/01/08 00:59:26;;;;;;;5.97;2.87;;;;;;;1.67;75.42;98513.75;4996796;28;20224;-72
2022/01/08 01:01:53;;;;;;;4.93;3.00;;;;;;;1.89;74.36;98494.16;5017080;28;20229;-72
2022/01/08 01:04:20;;;;;;;3.93;3.33;;;;;;;1.68;75.19;98497.81;5003073;28;20232;-72
2022/01/08 01:06:47;;;;;;;7.23;3.03;;;;;;;1.30;74.83;98475.16;5001149;28;20233;-72
2022/01/08 01:09:14;;;;;;;4.70;2.60;;;;;;;2.48;72.58;98484.06;5000130;28;20348;-72
2022/01/08 01:11:41;;;;;;;2.73;2.30;;;;;;;1.69;74.04;98488.16;4999992;28;20228;-72
2022/01/08 01:14:08;;;;;;;6.33;2.87;;;;;;;1.54;75.11;98496.50;4999882;28;20231;-72
2022/01/08 01:16:35;;;;;;;4.20;2.93;;;;;;;2.50;72.04;98485.53;5003669;28;20248;-72
2022/01/08 01:19:04;;;;;;;4.23;2.87;;;;;;;1.29;74.28;98462.97;4999212;28;20236;-72
2022/01/08 01:21:31;;;;;;;5.43;2.40;;;;;;;2.76;71.22;98489.22;5003944;28;20247;-72
2022/01/08 01:24:00;;;;;;;3.13;2.23;;;;;;;0.88;74.91;98431.72;4992234;28;20239;-71
2022/01/08 01:26:29;;;;;;;2.90;2.50;;;;;;;2.07;73.85;98467.84;5003970;28;20678;-71
2022/01/08 01:29:25;;;;;;;6.13;3.00;;;;;;;1.54;73.52;98422.09;5004744;28;20221;-71
2022/01/08 01:48:02;;;;;;;5.60;3.13;;;;;;;1.45;75.82;98436.09;5005414;28;20231;-68
2022/01/08 01:50:29;;;;;;;2.63;2.20;;;;;;;1.23;76.00;98411.84;5000885;28;20597;-69
2022/01/08 01:52:56;;;;;;;3.53;2.40;;;;;;;1.14;75.99;98389.06;5004136;28;20225;-70
2022/01/08 01:55:23;;;;;;;3.50;2.80;;;;;;;2.19;74.64;98418.47;4999090;28;20233;-70
2022/01/08 01:57:51;;;;;;;3.87;2.43;;;;;;;1.96;73.00;98394.44;5004511;28;20596;-69
2022/01/08 02:00:18;;;;;;;2.70;2.50;;;;;;;2.08;73.80;98385.34;5003910;28;20229;-70
2022/01/08 02:02:45;;;;;;;3.13;2.80;;;;;;;2.42;73.75;98417.03;5002646;28;20232;-70
2022/01/08 02:05:12;;;;;;;3.63;2.23;;;;;;;2.26;74.90;98424.81;5006376;28;20225;-69
2022/01/08 02:07:39;;;;;;;2.83;2.43;;;;;;;1.67;77.30;98437.53;5001387;28;20236;-69
2022/01/08 02:10:07;;;;;;;6.17;2.53;;;;;;;2.57;71.97;98384.91;5032111;28;20942;-70
2022/01/08 02:12:34;;;;;;;7.33;3.03;;;;;;;2.10;73.50;98384.19;5013277;28;20989;-70
2022/01/08 02:15:02;;;;;;;3.00;2.67;;;;;;;2.47;72.89;98385.81;5005768;28;20224;-69
2022/01/08 02:17:29;;;;;;;2.27;2.07;;;;;;;1.01;76.88;98390.22;5005836;28;20239;-69
2022/01/08 02:19:56;;;;;;;2.60;2.40;;;;;;;2.50;73.79;98403.13;5005445;28;20222;-68
2022/01/08 02:22:23;;;;;;;2.13;2.03;;;;;;;0.86;77.10;98373.28;5006204;28;20996;-69
2022/01/08 02:24:50;;;;;;;2.53;2.33;;;;;;;2.41;73.22;98377.72;5006179;28;20229;-69
2022/01/08 02:27:17;;;;;;;2.43;2.27;;;;;;;1.92;73.52;98375.47;5005716;28;20230;-69
2022/01/08 02:29:46;;;;;;;1.87;1.77;;;;;;;1.08;77.80;98408.84;5005986;28;20232;-68
2022/01/08 02:32:16;;;;;;;2.33;2.13;;;;;;;1.12;75.68;98356.84;5008114;28;20254;-69
2022/01/08 02:34:46;;;;;;;2.47;2.30;;;;;;;1.21;76.59;98374.34;5004577;28;20224;-69
2022/01/08 02:37:14;;;;;;;2.13;1.93;;;;;;;2.50;73.65;98380.25;5007047;28;20225;-70
2022/01/08 02:39:43;;;;;;;2.90;2.47;;;;;;;2.42;74.31;98395.16;5006020;28;20235;-70
2022/01/08 02:42:13;;;;;;;2.53;2.33;;;;;;;2.94;72.56;98387.28;5005651;28;20239;-69
2022/01/08 02:44:41;;;;;;;2.47;2.10;;;;;;;3.25;70.96;98381.50;5004382;28;20243;-69
2022/01/08 02:47:12;;;;;;;3.77;1.93;;;;;;;1.06;78.96;98421.31;5006549;28;20228;-68
2022/01/08 02:49:39;;;;;;;3.40;2.00;;;;;;;2.15;74.69;98377.69;5006618;28;20238;-69
2022/01/08 02:52:07;;;;;;;2.80;2.53;;;;;;;1.98;75.87;98392.50;5005631;28;20242;-69
2022/01/08 02:54:34;;;;;;;2.40;2.20;;;;;;;1.08;76.97;98381.75;4988699;28;20216;-69
2022/01/08 02:57:02;;;;;;;2.60;2.40;;;;;;;1.19;78.01;98408.66;5006576;28;20234;-70
2022/01/08 02:59:29;;;;;;;3.17;2.10;;;;;;;2.00;74.60;98353.69;5005692;28;20642;-70
2022/01/08 03:01:56;;;;;;;2.73;2.53;;;;;;;3.04;70.71;98356.38;5004685;28;20227;-69
2022/01/08 03:04:23;;;;;;;2.60;2.40;;;;;;;1.28;75.03;98362.31;4997736;28;20224;-69
2022/01/08 03:06:50;;;;;;;2.33;2.13;;;;;;;2.64;74.64;98402.56;5006812;28;20227;-69
2022/01/08 03:09:17;;;;;;;3.67;2.53;;;;;;;2.87;72.20;98373.91;5005525;28;20235;-70
2022/01/08 03:11:44;;;;;;;3.00;2.30;;;;;;;3.43;69.75;98358.53;5006621;28;20229;-70
2022/01/08 03:14:11;;;;;;;4.07;2.73;;;;;;;3.68;69.36;98363.06;5005750;28;20224;-69
2022/01/08 03:16:38;;;;;;;4.87;2.53;;;;;;;3.59;69.02;98367.47;5015240;28;20239;-70
2022/01/08 03:19:10;;;;;;;2.70;2.13;;;;;;;3.21;70.26;98352.00;5026286;28;20960;-71
2022/01/08 03:21:43;;;;;;;3.00;2.50;;;;;;;3.56;69.78;98383.63;5013881;28;20239;-70
2022/01/08 03:24:16;;;;;;;3.70;2.80;;;;;;;3.39;70.12;98373.03;5018721;28;20882;-70
2022/01/08 03:26:45;;;;;;;2.83;2.57;;;;;;;3.61;69.67;98376.06;5036908;28;20637;-70
2022/01/08 03:29:12;;;;;;;3.73;3.40;;;;;;;2.47;72.59;98387.63;5006541;28;20624;-70
2022/01/08 03:31:39;;;;;;;2.10;2.00;;;;;;;2.81;71.83;98386.88;5008703;28;20229;-70
2022/01/08 03:34:06;;;;;;;4.40;2.60;;;;;;;2.38;73.10;98391.19;5006237;28;20217;-69
2022/01/08 03:36:33;;;;;;;2.83;2.40;;;;;;;3.61;69.02;98381.34;5004180;28;20225;-69
2022/01/08 03:39:00;;;;;;;3.03;1.90;;;;;;;3.14;71.12;98408.16;5006466;28;20225;-70
2022/01/08 03:41:28;;;;;;;3.13;2.20;;;;;;;3.49;69.17;98404.53;5005746;28;20235;-70
2022/01/08 03:43:55;;;;;;;2.47;2.27;;;;;;;3.30;68.97;98394.22;5006295;28;20231;-69
2022/01/08 03:46:22;;;;;;;2.00;1.90;;;;;;;3.00;70.76;98412.16;5009177;28;20246;-70
2022/01/08 03:49:17;;;;;;;2.50;2.30;;;;;;;3.33;70.31;98442.19;5008530;28;20826;-69
2022/01/08 03:51:40;;;;;;;2.30;2.10;;;;;;;3.08;69.76;98417.47;5009560;28;20237;-70
2022/01/08 03:54:07;;;;;;;2.73;2.27;;;;;;;3.21;69.62;98423.16;5008878;28;20266;-70
2022/01/08 03:56:34;;;;;;;2.43;2.10;;;;;;;3.20;69.39;98412.78;5009590;28;20235;-70
2022/01/08 03:59:01;;;;;;;4.17;2.00;;;;;;;3.11;68.99;98408.47;5008684;28;20228;-70
2022/01/08 04:01:28;;;;;;;2.50;2.30;;;;;;;3.03;69.86;98425.03;5011329;28;20603;-70
2022/01/08 04:03:56;;;;;;;2.60;2.40;;;;;;;3.37;68.45;98419.81;5009217;28;20654;-70
2022/01/08 04:06:23;;;;;;;3.73;2.40;;;;;;;3.87;67.82;98433.16;5008787;28;20247;-70
2022/01/08 04:08:56;;;;;;;3.53;2.60;;;;;;;4.05;67.32;98427.78;5008773;28;20227;-70
2022/01/08 04:11:25;;;;;;;3.13;2.63;;;;;;;3.71;68.12;98420.75;5006632;28;20228;-70
2022/01/08 04:13:54;;;;;;;2.50;2.30;;;;;;;3.52;69.03;98433.22;5019142;28;20231;-69
2022/01/08 04:16:28;;;;;;;3.90;2.70;;;;;;;3.56;69.18;98431.09;5009068;28;20227;-69
2022/01/08 04:18:56;;;;;;;2.57;2.37;;;;;;;3.40;69.67;98445.84;5007462;28;20220;-70
2022/01/08 04:23:56;;;;;;;3.83;2.30;;;;;;;3.67;69.14;98457.16;5008536;28;20710;-69
2022/01/08 04:26:26;;;;;;;3.73;2.60;;;;;;;3.19;70.74;98466.47;5008642;28;20227;-70
2022/01/08 04:28:53;;;;;;;3.40;3.10;;;;;;;3.84;69.04;98491.53;5009224;28;20231;-69
2022/01/08 04:31:24;;;;;;;2.60;2.13;;;;;;;3.45;69.92;98473.56;5010265;28;20225;-69
2022/01/08 04:33:53;;;;;;;2.53;2.33;;;;;;;3.97;68.58;98507.72;5001519;28;20225;-69
2022/01/08 04:36:20;;;;;;;2.73;2.50;;;;;;;3.95;67.14;98496.53;5004015;28;20227;-70
2022/01/08 04:38:47;;;;;;;2.10;2.00;;;;;;;4.43;65.02;98502.06;5013153;28;20612;-69
2022/01/08 04:41:14;;;;;;;2.03;1.93;;;;;;;4.64;63.98;98530.66;5015737;28;20235;-70
2022/01/08 04:43:43;;;;;;;2.17;2.07;;;;;;;3.94;65.15;98526.50;5007025;28;20231;-69
2022/01/08 04:46:11;;;;;;;1.90;1.80;;;;;;;3.78;64.59;98537.84;5020774;28;20768;-69
2022/01/08 04:48:41;;;;;;;2.10;1.93;;;;;;;3.85;64.53;98564.41;5008580;28;20735;-69
2022/01/08 04:51:08;;;;;;;1.77;1.67;;;;;;;3.76;63.88;98574.09;5008544;28;20232;-69
2022/01/08 04:53:35;;;;;;;1.90;1.80;;;;;;;4.14;63.26;98601.81;5007118;28;20224;-69
2022/01/08 04:56:02;;;;;;;2.17;2.07;;;;;;;4.28;62.41;98607.47;5008248;28;20229;-70
2022/01/08 04:58:29;;;;;;;1.97;1.77;;;;;;;4.22;62.91;98627.41;5007957;28;20232;-69
2022/01/08 05:00:56;;;;;;;1.90;1.80;;;;;;;3.83;62.91;98627.03;5004969;28;20226;-69
2022/01/08 05:03:23;;;;;;;2.00;1.90;;;;;;;3.70;62.44;98630.91;5016183;28;20223;-70
2022/01/08 05:05:50;;;;;;;2.00;1.90;;;;;;;4.34;61.98;98667.56;5011075;28;20239;-69
2022/01/08 05:08:17;;;;;;;1.83;1.73;;;;;;;4.35;61.30;98664.75;4988339;28;20736;-69
2022/01/08 05:10:44;;;;;;;1.70;1.60;;;;;;;4.48;60.77;98680.16;5006954;28;20727;-69
2022/01/08 05:13:11;;;;;;;1.80;1.70;;;;;;;3.50;61.54;98647.94;5007616;28;20225;-69
2022/01/08 05:15:38;;;;;;;2.10;2.00;;;;;;;3.26;63.20;98709.97;5007385;28;20239;-68
2022/01/08 05:18:09;;;;;;;1.70;1.60;;;;;;;3.54;62.51;98707.28;5000232;28;20226;-68
2022/01/08 05:20:38;;;;;;;2.37;1.80;;;;;;;3.46;62.35;98709.88;5019057;28;20231;-68
2022/01/08 05:23:05;;;;;;;1.63;1.60;;;;;;;4.35;60.66;98729.97;5010054;28;20242;-68
2022/01/08 05:25:33;;;;;;;1.87;1.77;;;;;;;4.42;59.92;98720.41;5007470;28;20222;-67
2022/01/08 05:28:00;;;;;;;1.90;1.80;;;;;;;3.77;61.35;98741.91;5006260;28;20228;-68
2022/01/08 05:30:28;;;;;;;2.17;2.07;;;;;;;3.66;61.48;98748.28;5002616;28;20238;-68
2022/01/08 05:32:56;;;;;;;3.43;1.73;;;;;;;3.81;61.12;98767.03;5014325;28;20230;-69
2022/01/08 05:35:25;;;;;;;1.60;1.60;;;;;;;3.91;61.06;98769.56;5007282;28;20242;-68
2022/01/08 05:37:53;;;;;;;2.23;2.13;;;;;;;3.88;60.35;98775.16;5005344;28;20235;-68
2022/01/08 05:40:20;;;;;;;1.80;1.70;;;;;;;4.27;59.71;98794.09;4989606;28;20246;-69
2022/01/08 05:42:48;;;;;;;1.93;1.83;;;;;;;3.86;60.35;98801.69;5001150;28;20224;-69
2022/01/08 05:45:17;;;;;;;1.87;1.77;;;;;;;3.74;59.50;98784.44;5004261;28;20237;-69
2022/01/08 05:47:44;;;;;;;3.70;2.00;;;;;;;3.91;59.33;98788.88;5005438;28;20741;-69
2022/01/08 05:50:11;;;;;;;2.30;2.20;;;;;;;4.72;58.31;98830.03;5006759;28;20826;-69
2022/01/08 05:52:38;;;;;;;3.17;1.90;;;;;;;4.27;58.50;98806.47;5006246;28;20242;-68
2022/01/08 05:55:06;;;;;;;4.00;1.93;;;;;;;4.66;58.03;98832.47;5001989;28;20232;-68
2022/01/08 05:57:33;;;;;;;2.37;2.07;;;;;;;4.81;57.42;98843.28;5002029;28;20228;-69
2022/01/08 06:00:01;;;;;;;3.30;1.80;;;;;;;4.92;56.84;98821.88;5005376;28;20221;-68
2022/01/08 06:02:28;;;;;;;1.63;1.60;;;;;;;4.75;57.88;98841.25;5004665;28;20225;-69
2022/01/08 06:04:55;;;;;;;2.73;2.27;;;;;;;4.22;59.53;98845.69;5006176;28;20232;-67
2022/01/08 06:07:22;;;;;;;3.10;2.20;;;;;;;5.01;57.97;98870.34;5000387;28;20254;-68
2022/01/08 06:09:49;;;;;;;1.90;1.80;;;;;;;4.42;58.57;98855.09;5000972;28;20224;-69
2022/01/08 06:12:16;;;;;;;1.80;1.70;;;;;;;4.68;57.72;98872.75;5003116;28;20224;-69
2022/01/08 06:14:43;;;;;;;2.20;2.10;;;;;;;4.93;57.69;98884.34;5005333;28;20687;-68
2022/01/08 06:17:11;;;;;;;2.80;1.90;;;;;;;5.67;56.25;98903.16;5007168;28;20231;-69
2022/01/08 06:19:38;;;;;;;2.80;2.13;;;;;;;5.82;55.26;98879.56;5002617;28;20263;-68
2022/01/08 06:22:05;;;;;;;2.20;2.00;;;;;;;4.99;56.67;98861.72;5000254;28;20227;-69
2022/01/08 06:24:32;;;;;;;2.57;2.30;;;;;;;4.91;57.80;98897.69;5011367;28;20234;-69
2022/01/08 06:26:59;;;;;;;2.37;2.20;;;;;;;4.15;59.70;98909.66;5025458;28;20228;-69
2022/01/08 06:29:27;;;;;;;2.80;2.60;;;;;;;4.40;59.59;98930.16;5023359;28;20259;-69
2022/01/08 06:31:54;;;;;;;3.17;2.40;;;;;;;4.33;60.10;98940.47;5017086;28;20258;-69
2022/01/08 06:34:21;;;;;;;4.03;3.47;;;;;;;3.91;60.97;98938.41;5014292;28;20230;-69
2022/01/08 06:36:48;;;;;;;4.33;3.70;;;;;;;4.41;60.05;98953.75;5024282;28;20258;-67
2022/01/08 06:39:18;;;;;;;4.30;3.90;;;;;;;4.33;59.76;98936.06;5007456;28;20981;-69
2022/01/08 06:41:45;;;;;;;5.07;4.57;;;;;;;4.47;60.11;98947.06;5004377;28;20239;-69
2022/01/08 06:44:12;;;;;;;3.30;3.00;;;;;;;5.02;58.50;98936.25;5004629;28;20228;-69
2022/01/08 06:46:40;;;;;;;2.57;2.37;;;;;;;4.91;59.23;98950.56;4995824;28;20232;-69
2022/01/08 06:49:08;;;;;;;2.60;2.40;;;;;;;4.87;59.35;98958.91;5006918;28;20269;-68
2022/01/08 06:51:36;;;;;;;2.70;2.50;;;;;;;4.57;59.06;98953.09;5003231;28;20237;-68
2022/01/08 06:54:03;;;;;;;3.33;2.93;;;;;;;4.39;59.50;98961.00;5006195;28;20240;-68
2022/01/08 06:56:30;;;;;;;4.33;3.10;;;;;;;4.21;59.75;98962.81;4987136;28;20232;-69
2022/01/08 06:58:57;;;;;;;6.33;4.37;;;;;;;4.87;58.91;98986.19;5000649;28;20228;-68
2022/01/08 07:01:24;;;;;;;3.80;3.47;;;;;;;4.50;59.59;98975.78;5016997;28;20738;-69
2022/01/08 07:03:51;;;;;;;3.10;2.80;;;;;;;4.88;58.62;98990.47;5004489;28;20227;-68
2022/01/08 07:06:19;;;;;;;3.30;2.87;;;;;;;4.40;59.25;98975.88;5004858;28;20228;-69
2022/01/08 07:08:45;;;;;;;4.73;3.33;;;;;;;4.16;59.65;98973.81;5004178;28;20577;-68
2022/01/08 07:11:13;;;;;;;3.73;2.60;;;;;;;3.29;62.47;99017.22;5016004;28;20240;-68
2022/01/08 07:13:40;;;;;;;3.73;3.40;;;;;;;4.14;61.47;99047.88;5006207;28;20224;-67
2022/01/08 07:16:07;;;;;;;2.93;2.63;;;;;;;4.27;60.19;99017.66;5005994;28;20221;-69
2022/01/08 07:18:34;;;;;;;3.30;3.00;;;;;;;4.49;59.67;99024.31;5004790;28;20235;-69
2022/01/08 07:21:01;;;;;;;4.53;3.23;;;;;;;3.80;61.11;99021.25;5009197;28;20239;-68
2022/01/08 07:23:28;;;;;;;5.90;3.90;;;;;;;4.26;60.52;99040.56;5000102;28;20223;-68
2022/01/08 07:25:55;;;;;;;4.20;3.70;;;;;;;4.00;60.56;99029.09;5009169;28;20712;-69
2022/01/08 07:28:22;;;;;;;5.00;3.50;;;;;;;3.89;60.95;99033.56;5009640;28;20524;-68
2022/01/08 07:30:49;;;;;;;7.57;4.47;;;;;;;3.62;61.68;99042.28;5011272;28;20242;-69
2022/01/08 07:33:15;;;;;;;4.80;3.90;;;;;;;4.09;61.28;99083.63;5016609;28;20240;-68
2022/01/08 07:35:43;;;;;;;7.67;4.23;;;;;;;3.94;61.28;99078.81;5000107;28;20232;-69
2022/01/08 07:38:09;;;;;;;5.50;3.90;;;;;;;3.92;61.43;99074.66;5007620;28;20814;-69
2022/01/08 07:40:36;;;;;;;6.90;4.10;;;;;;;3.90;61.54;99081.91;5007878;28;20238;-68
2022/01/08 07:43:04;;;;;;;5.10;3.97;;;;;;;4.00;61.00;99069.50;5008551;28;20753;-69
2022/01/08 07:45:31;;;;;;;5.30;3.77;;;;;;;3.52;61.76;99060.78;5008182;28;20237;-68
2022/01/08 07:47:58;;;;;;;7.67;3.73;;;;;;;2.94;62.97;99077.50;5002565;28;20231;-68
2022/01/08 07:50:26;;;;;;;4.80;3.53;;;;;;;3.86;61.23;99091.91;5007119;28;20222;-68
2022/01/08 07:52:53;;;;;;;6.30;3.70;;;;;;;3.71;61.87;99088.91;5006735;28;20224;-69
2022/01/08 07:55:20;;;;;;;5.00;3.70;;;;;;;3.62;61.22;99076.56;5005938;28;20232;-69
2022/01/08 07:57:47;;;;;;;9.37;3.80;;;;;;;3.61;60.88;99085.47;5010380;28;20231;-68
2022/01/08 08:00:15;;;;;;;7.27;4.30;;;;;;;3.86;61.09;99089.28;5007754;28;20774;-68
2022/01/08 08:02:42;;;;;;;5.73;3.80;;;;;;;3.56;61.38;99087.72;5032295;28;20575;-69
2022/01/08 08:05:09;;;;;;;6.57;3.73;;;;;;;3.27;62.48;99109.66;5007543;28;20226;-68
2022/01/08 08:07:38;;;;;;;5.20;4.23;;;;;;;4.07;60.59;99111.97;5007679;28;20227;-68
2022/01/08 08:10:10;;;;;;;4.73;4.10;;;;;;;3.52;60.62;99108.25;5008274;28;20234;-69
2022/01/08 08:12:39;;;;;;;5.63;3.80;;;;;;;3.96;60.34;99120.88;4999889;28;20434;-68
2022/01/08 08:15:07;;;;;;;6.73;4.40;;;;;;;3.84;60.58;99116.78;4987624;28;20711;-69
2022/01/08 08:17:35;;;;;;;7.57;4.53;;;;;;;4.10;59.18;99125.72;5009406;28;20678;-68
2022/01/08 08:20:04;;;;;;;7.07;4.00;;;;;;;4.04;59.42;99113.06;5007556;28;20222;-68
2022/01/08 08:22:31;;;;;;;8.03;5.37;;;;;;;3.89;60.01;99117.16;5008530;28;20232;-68
2022/01/08 08:24:58;;;;;;;9.33;4.53;;;;;;;3.98;59.78;99140.06;5005981;28;20745;-68
2022/01/08 08:27:25;;;;;;;8.60;5.07;;;;;;;3.61;60.89;99135.59;5017690;28;20222;-70
2022/01/08 08:29:52;;;;;;;10.40;5.57;;;;;;;3.64;59.96;99131.81;5007522;28;20229;-68
2022/01/08 08:32:19;;;;;;;8.90;5.90;;;;;;;3.75;59.59;99132.47;5010196;28;20228;-68
2022/01/08 08:34:46;;;;;;;6.50;4.50;;;;;;;3.38;60.79;99138.53;5005564;28;20240;-68
2022/01/08 08:37:14;;;;;;;9.17;4.70;;;;;;;3.89;59.35;99123.28;5001622;28;20234;-68
2022/01/08 08:39:41;;;;;;;6.23;4.00;;;;;;;3.53;60.04;99133.66;5005419;28;20241;-68
2022/01/08 08:42:08;;;;;;;6.40;4.17;;;;;;;3.59;60.34;99146.28;5008203;28;20239;-69
2022/01/08 08:44:35;;;;;;;10.13;4.30;;;;;;;3.68;60.16;99138.50;5007821;28;20223;-69
2022/01/08 08:47:04;;;;;;;9.60;3.93;;;;;;;3.64;60.69;99145.84;5006950;28;20224;-68
2022/01/08 08:49:32;;;;;;;17.93;10.87;;;;;;;3.98;59.71;99150.63;5003573;28;21535;-68
2022/01/08 08:52:00;;;;;;;9.17;6.07;;;;;;;3.45;61.13;99141.44;5001894;28;20235;-69
2022/01/08 08:54:28;;;;;;;6.20;5.23;;;;;;;3.71;60.91;99140.81;5010900;28;20226;-69
2022/01/08 08:56:57;;;;;;;9.13;4.57;;;;;;;4.03;59.50;99123.78;5006098;28;20228;-67
2022/01/08 08:59:24;;;;;;;4.90;3.83;;;;;;;4.80;58.99;99153.41;5007555;28;20228;-68
2022/01/08 09:01:51;;;;;;;27.63;16.30;;;;;;;3.95;59.99;99143.00;5004782;28;20242;-68
2022/01/08 09:04:18;;;;;;;22.57;14.53;;;;;;;4.23;59.61;99143.00;5020356;28;20222;-68
2022/01/08 09:06:45;;;;;;;16.73;9.50;;;;;;;4.17;59.86;99137.34;5025910;28;20234;-68
2022/01/08 09:09:12;;;;;;;10.23;6.03;;;;;;;3.91;60.68;99144.25;5007490;28;20228;-69
2022/01/08 09:11:40;;;;;;;7.10;5.57;;;;;;;4.43;59.15;99133.19;5010030;28;20711;-68
2022/01/08 09:14:07;;;;;;;7.97;4.10;;;;;;;4.22;59.19;99136.91;5001926;28;20236;-71
2022/01/08 09:16:35;;;;;;;7.03;4.43;;;;;;;3.79;60.36;99139.16;4999399;28;20238;-69
2022/01/08 09:19:03;;;;;;;6.97;4.20;;;;;;;3.55;60.48;99136.16;5004951;28;20229;-72
2022/01/08 09:21:30;;;;;;;7.13;4.83;;;;;;;4.04;59.95;99157.13;5005749;28;20242;-72
2022/01/08 09:23:57;;;;;;;7.27;4.30;;;;;;;4.07;60.01;99147.09;5005166;28;20251;-72
2022/01/08 09:26:24;;;;;;;5.20;3.53;;;;;;;4.13;59.95;99154.47;5004835;28;20760;-72
2022/01/08 09:28:51;;;;;;;7.77;5.50;;;;;;;3.71;60.90;99157.50;4999781;28;20277;-72
2022/01/08 09:31:18;;;;;;;8.03;4.80;;;;;;;3.67;60.06;99150.00;5020907;28;20232;-70
2022/01/08 09:33:45;;;;;;;10.23;4.07;;;;;;;3.94;59.76;99167.72;5008265;28;20220;-70
2022/01/08 09:36:13;;;;;;;6.53;4.27;;;;;;;3.64;59.73;99148.50;5004756;28;20216;-71
2022/01/08 09:38:40;;;;;;;8.80;4.70;;;;;;;4.17;59.24;99170.84;5006749;28;20255;-70
2022/01/08 09:41:08;;;;;;;5.23;3.60;;;;;;;4.15;59.49;99168.34;4996852;28;20239;-70
2022/01/08 09:43:36;;;;;;;9.60;5.07;;;;;;;4.51;58.48;99160.53;5005292;28;20232;-71
2022/01/08 09:46:03;;;;;;;7.87;5.00;;;;;;;4.40;58.74;99160.75;5005143;28;20236;-68
2022/01/08 09:48:30;;;;;;;17.20;8.07;;;;;;;4.11;59.30;99145.84;5006274;28;20594;-68
2022/01/08 09:50:58;;;;;;;10.27;5.97;;;;;;;4.46;58.46;99154.84;5018531;28;20232;-68
2022/01/08 09:53:24;;;;;;;11.37;5.10;;;;;;;4.50;58.95;99148.31;4997937;28;20232;-68
2022/01/08 09:55:51;;;;;;;9.67;4.47;;;;;;;4.38;59.42;99132.81;5025761;28;20220;-68
2022/01/08 09:58:19;;;;;;;5.17;3.67;;;;;;;4.14;59.49;99132.34;5004187;28;20220;-68
2022/01/08 10:00:46;;;;;;;9.07;4.33;;;;;;;4.69;58.55;99139.44;5009697;28;20800;-68
2022/01/08 10:03:22;;;;;;;9.10;4.30;;;;;;;4.64;59.00;99146.16;5005474;28;20225;-68
2022/01/08 10:05:55;;;;;;;6.70;4.17;;;;;;;4.29;59.48;99143.25;4998334;28;20236;-68
2022/01/08 10:08:43;;;;;;;5.47;4.23;;;;;;;4.47;58.43;99118.72;5011206;28;20222;-68
2022/01/08 10:11:12;;;;;;;7.83;4.60;;;;;;;4.36;58.89;99128.50;5014216;28;20233;-68
2022/01/08 10:13:41;;;;;;;5.50;3.60;;;;;;;4.65;59.46;99139.88;5008176;28;20229;-68
2022/01/08 10:19:01;;;;;;;5.80;4.10;;;;;;;4.87;58.21;99115.69;4995645;28;20576;-68
2022/01/08 10:21:34;;;;;;;4.90;3.67;;;;;;;4.39;59.40;99111.53;5005140;28;20225;-68
2022/01/08 10:24:04;;;;;;;6.43;3.80;;;;;;;5.00;58.58;99112.66;5005114;28;20259;-68
2022/01/08 10:26:36;;;;;;;6.63;3.93;;;;;;;3.96;60.10;99095.34;5006566;28;20236;-68
2022/01/08 10:29:11;;;;;;;5.53;4.10;;;;;;;4.18;60.80;99119.72;5001811;28;20262;-67
2022/01/08 10:31:41;;;;;;;5.20;4.20;;;;;;;4.25;60.40;99106.72;5004686;28;20241;-68
2022/01/08 10:34:08;;;;;;;5.60;3.50;;;;;;;3.58;61.24;99105.03;5004562;28;20235;-68
2022/01/08 10:36:38;;;;;;;7.93;3.90;;;;;;;3.64;60.89;99095.75;4988838;28;20250;-68
2022/01/08 10:39:10;;;;;;;6.40;4.60;;;;;;;4.41;59.77;99106.09;5005497;28;20223;-68
2022/01/08 10:41:42;;;;;;;4.17;3.70;;;;;;;4.06;61.13;99119.03;5001675;28;20236;-68
2022/01/08 10:44:20;;;;;;;8.30;4.30;;;;;;;4.01;60.69;99113.38;4999415;28;20702;-67
2022/01/08 10:47:00;;;;;;;6.00;3.90;;;;;;;4.27;59.81;99086.31;5012177;28;20224;-68
2022/01/08 10:49:39;;;;;;;8.40;3.73;;;;;;;2.31;62.82;99089.19;5007675;28;20703;-67
2022/01/08 10:52:14;;;;;;;4.67;3.50;;;;;;;3.69;61.16;99114.59;5018167;28;20223;-68
2022/01/08 10:54:48;;;;;;;9.60;4.33;;;;;;;4.21;59.75;99110.66;5001051;28;20679;-67
2022/01/08 10:57:15;;;;;;;5.27;3.90;;;;;;;2.79;61.71;99073.59;5000954;28;20229;-68
2022/01/08 10:59:45;;;;;;;6.40;3.70;;;;;;;3.59;60.97;99122.53;5005509;28;20238;-68
2022/01/08 11:04:02;;;;;;;5.50;3.87;;;;;;;2.01;65.28;99176.06;5108561;27;20930;-69
2022/01/08 11:06:30;;;;;;;5.10;3.70;;;;;;;1.41;67.03;99178.41;5097412;27;20230;-69
2022/01/08 11:09:01;;;;;;;5.93;3.73;;;;;;;1.50;66.67;99167.16;5066907;28;20237;-69
2022/01/08 11:11:30;;;;;;;5.07;3.77;;;;;;;1.08;68.77;99182.84;5101929;28;20229;-70
2022/01/08 11:14:07;;;;;;;4.03;3.73;;;;;;;0.59;69.34;99153.50;5080725;28;20217;-71
2022/01/08 11:16:35;;;;;;;4.93;3.50;;;;;;;0.34;70.55;99149.38;5081449;27;20758;-69
2022/01/08 11:19:03;;;;;;;5.60;3.60;;;;;;;0.25;71.69;99154.38;5080061;28;20233;-69
2022/01/08 11:21:31;;;;;;;4.70;3.40;;;;;;;0.08;71.21;99126.84;5075113;28;20606;-69
2022/01/08 11:23:59;;;;;;;3.97;3.30;;;;;;;1.16;69.91;99148.91;5080570;27;20710;-71
2022/01/08 11:26:27;;;;;;;5.63;3.97;;;;;;;0.75;69.18;99083.03;5080760;28;20226;-71
2022/01/08 11:28:58;;;;;;;3.50;3.20;;;;;;;0.72;68.54;99069.34;5081311;28;20232;-71
2022/01/08 11:31:33;;;;;;;4.47;3.57;;;;;;;0.10;70.86;99086.53;5078203;28;20219;-71
2022/01/08 11:34:07;;;;;;;3.77;3.40;;;;;;;0.81;69.81;99087.81;5082768;28;20224;-71
2022/01/08 11:36:35;;;;;;;3.40;3.07;;;;;;;-0.03;73.16;99091.94;5098990;28;20241;-70
2022/01/08 11:39:02;;;;;;;5.37;3.33;;;;;;;0.71;71.27;99086.88;5079638;28;20227;-70
2022/01/08 11:41:29;;;;;;;4.03;3.20;;;;;;;0.39;71.14;99079.00;5081798;28;20612;-70
2022/01/08 11:43:57;;;;;;;3.20;2.90;;;;;;;-0.24;72.37;99057.72;5078447;28;21430;-71
2022/01/08 11:46:24;;;;;;;3.63;2.80;;;;;;;0.34;71.02;99071.47;5057862;28;20228;-69
2022/01/08 11:48:54;;;;;;;5.83;3.67;;;;;;;1.13;68.74;99052.78;5082327;28;20697;-71
2022/01/08 11:51:24;;;;;;;4.13;3.73;;;;;;;0.10;73.45;99092.63;5080163;28;20256;-71
2022/01/08 11:53:53;;;;;;;7.77;3.97;;;;;;;0.51;70.81;99032.56;5079052;28;20222;-69
2022/01/08 11:56:39;;;;;;;3.70;3.27;;;;;;;0.26;72.47;99047.66;5078490;28;20350;-68
2022/01/08 11:59:12;;;;;;;6.13;3.77;;;;;;;2.01;68.34;99020.84;5078315;28;20229;-70
2022/01/08 12:01:43;;;;;;;5.23;3.83;;;;;;;1.01;69.70;99019.69;5078275;28;20275;-71
2022/01/08 12:04:33;;;;;;;6.67;3.50;;;;;;;0.79;70.97;99013.59;5080816;28;20286;-71
2022/01/08 12:07:24;;;;;;;7.43;3.33;;;;;;;0.62;71.75;99022.00;5094064;28;20243;-72
2022/01/08 12:10:20;;;;;;;6.17;3.93;;;;;;;2.45;67.52;98968.69;5071131;28;21411;-69